Time;durP1;ratioP1;P1;durP2;ratioP2;P2;SDS_P1;SDS_P2;PMS_P1;PMS_P2;Temp;Humidity;BMP_temperature;BMP_pressure;BME280_temperature;BME280_humidity;BME280_pressure;Samples;Min_cycle;Max_cycle;Signal;HPM_P1;HPM_P2
2021/11/29 00:00:43;;;;;;;4.60;2.00;;;;;;;-2.38;100.00;100239.41;4999462;28;20600;-81
2021/11/29 00:03:11;;;;;;;4.28;2.25;;;;;;;-1.93;100.00;100326.06;5001064;28;20022;-81
2021/11/29 00:05:37;;;;;;;3.00;2.08;;;;;;;-1.87;100.00;100337.91;4999949;28;20014;-80
2021/11/29 00:08:03;;;;;;;6.15;2.50;;;;;;;-1.84;100.00;100342.09;5015191;28;20062;-81
2021/11/29 00:10:32;;;;;;;4.50;2.20;;;;;;;-1.85;100.00;100324.59;4995648;28;20034;-81
2021/11/29 00:12:59;;;;;;;3.50;2.00;;;;;;;-1.83;100.00;100341.97;5015901;28;20022;-81
2021/11/29 00:15:26;;;;;;;6.07;2.58;;;;;;;-2.05;100.00;100313.97;5004765;28;20045;-81
2021/11/29 00:17:51;;;;;;;4.45;2.08;;;;;;;-1.96;100.00;100342.16;4998035;28;20356;-81
2021/11/29 00:20:17;;;;;;;5.07;2.15;;;;;;;-1.99;100.00;100339.78;4980727;28;20026;-81
2021/11/29 00:22:43;;;;;;;3.38;2.22;;;;;;;-2.05;100.00;100339.47;4996685;28;20054;-81
2021/11/29 00:25:10;;;;;;;4.95;2.05;;;;;;;-2.01;100.00;100351.44;4995949;28;20030;-81
2021/11/29 00:27:36;;;;;;;4.72;2.22;;;;;;;-2.11;100.00;100354.00;4979522;28;20050;-81
2021/11/29 00:30:04;;;;;;;3.88;2.00;;;;;;;-2.13;100.00;100342.75;4994485;28;20038;-80
2021/11/29 00:32:30;;;;;;;3.85;2.10;;;;;;;-2.05;100.00;100361.41;4980110;28;20030;-80
2021/11/29 00:34:56;;;;;;;3.45;2.22;;;;;;;-2.16;100.00;100356.19;4995871;28;20080;-81
2021/11/29 00:37:21;;;;;;;3.70;2.53;;;;;;;-2.20;100.00;100354.78;5007670;28;20384;-81
2021/11/29 00:39:47;;;;;;;2.75;2.20;;;;;;;-2.11;100.00;100375.09;4986367;28;20042;-81
2021/11/29 00:42:12;;;;;;;5.55;2.72;;;;;;;-2.09;100.00;100375.78;4985087;28;20026;-80
2021/11/29 00:44:38;;;;;;;5.13;2.70;;;;;;;-2.13;100.00;100379.66;5001010;28;20053;-80
2021/11/29 00:47:04;;;;;;;4.53;2.55;;;;;;;-2.12;100.00;100376.03;4982802;28;20042;-80
2021/11/29 00:49:30;;;;;;;4.38;2.60;;;;;;;-2.49;100.00;100328.19;4978385;28;20034;-81
2021/11/29 00:51:55;;;;;;;3.67;2.50;;;;;;;-2.23;100.00;100362.94;4961976;28;20093;-79
2021/11/29 00:54:21;;;;;;;3.97;2.15;;;;;;;-2.29;100.00;100371.34;4960687;28;20038;-80
2021/11/29 00:56:47;;;;;;;2.55;2.08;;;;;;;-2.35;100.00;100359.53;4992957;28;20042;-81
2021/11/29 00:59:12;;;;;;;3.35;2.50;;;;;;;-2.25;100.00;100378.88;4978236;28;20026;-80
2021/11/29 01:01:37;;;;;;;4.80;1.95;;;;;;;-2.91;100.00;100278.13;4978582;28;20042;-80
2021/11/29 01:04:04;;;;;;;3.00;2.15;;;;;;;-2.32;100.00;100388.25;4962865;28;20096;-80
2021/11/29 01:06:29;;;;;;;4.00;2.13;;;;;;;-2.31;100.00;100375.94;4993988;28;20041;-81
2021/11/29 01:08:55;;;;;;;5.22;2.42;;;;;;;-2.32;100.00;100385.59;4995605;28;20436;-80
2021/11/29 01:11:21;;;;;;;4.88;2.50;;;;;;;-2.39;100.00;100387.91;4977873;28;20118;-81
2021/11/29 01:13:47;;;;;;;5.32;2.70;;;;;;;-2.58;100.00;100361.41;4980319;28;20070;-81
2021/11/29 01:16:12;;;;;;;4.30;2.72;;;;;;;-2.47;100.00;100392.16;4979231;28;20030;-81
2021/11/29 01:18:38;;;;;;;4.18;2.47;;;;;;;-2.66;100.00;100377.84;4994315;28;20034;-81
2021/11/29 01:21:04;;;;;;;3.92;2.60;;;;;;;-3.02;100.00;100325.53;4996394;28;20033;-81
2021/11/29 01:23:30;;;;;;;5.47;2.80;;;;;;;-2.71;100.00;100381.81;4997195;28;20033;-80
2021/11/29 01:25:58;;;;;;;5.50;3.03;;;;;;;-2.62;100.00;100396.84;4996022;28;20034;-81
2021/11/29 01:28:24;;;;;;;6.40;3.38;;;;;;;-2.80;100.00;100364.97;4996572;28;20030;-81
2021/11/29 01:30:50;;;;;;;3.88;2.70;;;;;;;-2.67;100.00;100394.59;4978946;28;20038;-81
2021/11/29 01:33:15;;;;;;;5.75;3.05;;;;;;;-2.70;100.00;100391.38;4978189;28;20026;-79
2021/11/29 01:35:41;;;;;;;4.65;2.38;;;;;;;-2.89;100.00;100395.47;4994676;28;20455;-81
2021/11/29 01:38:07;;;;;;;4.57;3.00;;;;;;;-2.93;100.00;100396.69;4997617;28;20034;-81
2021/11/29 01:40:34;;;;;;;6.30;3.10;;;;;;;-2.91;100.00;100409.75;4995617;28;20028;-81
2021/11/29 01:43:10;;;;;;;6.60;2.80;;;;;;;-2.99;100.00;100391.91;4995074;28;20532;-81
2021/11/29 01:45:39;;;;;;;3.78;3.08;;;;;;;-3.04;100.00;100393.25;4995147;28;20022;-82
2021/11/29 01:48:05;;;;;;;3.63;2.50;;;;;;;-3.02;100.00;100412.38;4996983;28;20452;-81
2021/11/29 01:50:32;;;;;;;6.60;2.75;;;;;;;-3.09;100.00;100409.41;4982111;28;20034;-80
2021/11/29 01:52:58;;;;;;;4.38;2.78;;;;;;;-3.10;100.00;100403.31;4977956;28;20334;-81
2021/11/29 01:55:24;;;;;;;5.80;2.97;;;;;;;-3.57;100.00;100333.38;4997671;28;20038;-80
2021/11/29 01:57:50;;;;;;;4.43;2.92;;;;;;;-3.14;100.00;100406.31;5005306;28;20026;-81
2021/11/29 02:00:28;;;;;;;5.15;2.65;;;;;;;-3.24;100.00;100406.19;4985090;28;20334;-80
2021/11/29 02:02:55;;;;;;;4.28;3.00;;;;;;;-3.20;100.00;100420.78;4998412;28;20460;-81
2021/11/29 02:05:22;;;;;;;4.13;2.75;;;;;;;-3.18;100.00;100418.00;4995593;28;20035;-81
2021/11/29 02:07:48;;;;;;;4.18;2.67;;;;;;;-3.42;100.00;100397.91;4995867;28;20034;-80
2021/11/29 02:10:15;;;;;;;4.85;2.92;;;;;;;-3.29;100.00;100423.28;4999523;28;20371;-81
2021/11/29 02:12:41;;;;;;;6.07;2.67;;;;;;;-3.94;100.00;100319.59;4995455;28;20030;-81
2021/11/29 02:15:07;;;;;;;2.90;2.00;;;;;;;-3.24;100.00;100435.13;4981631;28;20097;-81
2021/11/29 02:17:33;;;;;;;4.60;2.58;;;;;;;-3.38;100.00;100433.56;4967831;28;20049;-80
2021/11/29 02:20:00;;;;;;;2.80;2.13;;;;;;;-3.45;100.00;100432.34;4988133;28;20030;-80
2021/11/29 02:22:26;;;;;;;3.80;2.58;;;;;;;-3.58;100.00;100423.72;5001585;28;20075;-80
2021/11/29 02:24:52;;;;;;;3.65;2.38;;;;;;;-3.61;100.00;100442.38;4982475;28;20031;-81
2021/11/29 02:27:18;;;;;;;2.97;2.15;;;;;;;-3.78;100.00;100415.56;5000475;28;20041;-81
2021/11/29 02:29:43;;;;;;;5.25;2.60;;;;;;;-3.68;100.00;100443.78;4995334;28;20078;-81
2021/11/29 02:32:09;;;;;;;4.38;2.17;;;;;;;-3.93;100.00;100415.91;4981550;28;20038;-80
2021/11/29 02:34:35;;;;;;;4.25;2.53;;;;;;;-3.82;100.00;100450.94;4982967;28;20106;-81
2021/11/29 02:37:06;;;;;;;4.20;2.35;;;;;;;-4.37;100.00;100378.88;5010366;28;20030;-81
2021/11/29 02:39:34;;;;;;;3.08;1.92;;;;;;;-3.93;100.00;100447.44;5017050;28;20026;-81
2021/11/29 02:42:03;;;;;;;3.63;2.40;;;;;;;-3.98;100.00;100445.16;5017045;28;20010;-81
2021/11/29 02:44:29;;;;;;;5.05;2.05;;;;;;;-3.99;100.00;100454.00;5002690;28;20113;-81
2021/11/29 02:46:55;;;;;;;5.20;2.20;;;;;;;-4.14;100.00;100424.47;4999682;28;20101;-81
2021/11/29 02:49:20;;;;;;;2.65;2.15;;;;;;;-4.03;100.00;100442.88;4998886;28;20125;-80
2021/11/29 02:51:49;;;;;;;2.47;2.00;;;;;;;-4.09;100.00;100455.63;5005588;28;20486;-81
2021/11/29 02:54:27;;;;;;;3.90;1.88;;;;;;;-4.66;100.00;100381.00;5007142;28;20654;-81
2021/11/29 02:56:55;;;;;;;3.08;1.95;;;;;;;-4.23;100.00;100456.66;4996073;28;20420;-81
2021/11/29 02:59:24;;;;;;;4.68;2.15;;;;;;;-4.23;100.00;100447.94;4999258;28;20097;-81
2021/11/29 03:01:52;;;;;;;2.00;1.55;;;;;;;-4.23;100.00;100448.78;4996983;28;20030;-81
2021/11/29 03:04:19;;;;;;;6.53;2.30;;;;;;;-4.55;100.00;100403.84;4998579;28;20121;-81
2021/11/29 03:06:45;;;;;;;2.95;1.95;;;;;;;-4.52;100.00;100419.38;4997718;28;20448;-81
2021/11/29 03:09:13;;;;;;;3.22;2.17;;;;;;;-4.51;100.00;100421.06;4981631;28;20129;-81
2021/11/29 03:11:39;;;;;;;4.03;2.05;;;;;;;-4.38;100.00;100453.34;4997644;28;20367;-81
2021/11/29 03:14:05;;;;;;;3.42;1.77;;;;;;;-4.44;100.00;100443.28;5001436;28;20105;-81
2021/11/29 03:16:31;;;;;;;3.90;2.08;;;;;;;-4.44;100.00;100464.28;4983995;28;20045;-81
2021/11/29 03:18:56;;;;;;;2.45;1.58;;;;;;;-4.49;100.00;100455.94;4999962;28;20117;-80
2021/11/29 03:21:23;;;;;;;3.75;1.70;;;;;;;-4.58;100.00;100440.81;5000752;28;20061;-81
2021/11/29 03:23:52;;;;;;;2.42;1.50;;;;;;;-4.91;100.00;100399.47;5000530;28;20113;-81
2021/11/29 03:26:20;;;;;;;2.05;1.30;;;;;;;-4.66;99.88;100445.81;4998774;28;20355;-81
2021/11/29 03:28:53;;;;;;;2.50;1.40;;;;;;;-4.60;99.61;100455.84;4997646;28;20080;-80
2021/11/29 03:31:19;;;;;;;3.17;1.60;;;;;;;-4.66;99.40;100451.06;4996882;28;20511;-81
2021/11/29 03:33:46;;;;;;;2.13;1.20;;;;;;;-4.68;99.15;100459.03;4997963;28;20042;-80
2021/11/29 03:36:12;;;;;;;3.70;1.50;;;;;;;-4.69;98.73;100453.91;4996392;28;20110;-81
2021/11/29 03:38:40;;;;;;;2.25;1.40;;;;;;;-4.72;98.81;100455.78;4998944;28;20038;-80
2021/11/29 03:41:07;;;;;;;7.47;1.30;;;;;;;-4.75;98.62;100456.00;4980412;28;20034;-80
2021/11/29 03:43:33;;;;;;;2.70;1.10;;;;;;;-4.78;98.45;100448.34;4980426;28;20058;-81
2021/11/29 03:45:58;;;;;;;1.52;1.02;;;;;;;-5.27;98.25;100375.75;4998687;28;20023;-81
2021/11/29 03:48:24;;;;;;;3.22;1.20;;;;;;;-4.77;98.16;100450.03;5006504;28;20082;-81
2021/11/29 03:50:49;;;;;;;2.08;1.33;;;;;;;-4.79;98.15;100457.19;5006137;28;20038;-81
2021/11/29 03:53:15;;;;;;;2.05;1.10;;;;;;;-4.75;97.87;100444.66;5008878;28;20105;-81
2021/11/29 03:55:41;;;;;;;2.13;1.20;;;;;;;-4.70;97.69;100471.44;5004369;28;20068;-80
2021/11/29 03:58:07;;;;;;;2.00;1.20;;;;;;;-5.11;97.83;100396.47;5001131;28;20061;-81
2021/11/29 04:00:34;;;;;;;1.50;0.90;;;;;;;-4.77;97.41;100460.53;4998654;28;20022;-81
2021/11/29 04:02:59;;;;;;;2.20;1.10;;;;;;;-4.77;97.80;100452.66;5000922;28;20038;-80
2021/11/29 04:05:25;;;;;;;2.63;1.00;;;;;;;-4.77;97.69;100460.53;4985437;28;20041;-81
2021/11/29 04:07:50;;;;;;;1.77;1.00;;;;;;;-4.79;97.58;100459.81;4999752;28;20034;-81
2021/11/29 04:10:16;;;;;;;3.45;1.15;;;;;;;-4.89;97.37;100440.41;4995904;28;20042;-81
2021/11/29 04:12:42;;;;;;;2.60;1.15;;;;;;;-5.07;97.40;100421.53;4997960;28;20468;-81
2021/11/29 04:15:09;;;;;;;2.67;1.20;;;;;;;-4.80;97.64;100460.75;5009919;28;20026;-81
2021/11/29 04:17:38;;;;;;;1.17;0.98;;;;;;;-4.83;97.83;100463.59;5004727;28;20031;-81
2021/11/29 04:20:08;;;;;;;1.35;0.85;;;;;;;-4.87;97.69;100449.00;4996979;28;20030;-80
2021/11/29 04:22:33;;;;;;;2.65;1.15;;;;;;;-4.88;97.74;100455.19;4991157;28;20034;-80
2021/11/29 04:25:02;;;;;;;1.50;1.10;;;;;;;-5.03;97.69;100435.31;5001007;28;20026;-81
2021/11/29 04:27:29;;;;;;;2.42;1.10;;;;;;;-4.81;97.90;100469.56;4994267;28;20102;-81
2021/11/29 04:29:54;;;;;;;2.30;1.20;;;;;;;-4.83;98.00;100468.84;4995560;28;20113;-81
2021/11/29 04:32:20;;;;;;;1.90;1.10;;;;;;;-4.94;97.75;100450.38;4997381;28;20085;-81
2021/11/29 04:34:45;;;;;;;1.75;0.95;;;;;;;-4.77;97.87;100478.91;4978756;28;20023;-80
2021/11/29 04:37:10;;;;;;;2.05;1.20;;;;;;;-4.79;97.76;100490.47;4993050;28;20037;-80
2021/11/29 04:39:36;;;;;;;1.40;0.93;;;;;;;-4.81;97.66;100490.56;4997019;28;20187;-80
2021/11/29 04:42:02;;;;;;;4.75;1.10;;;;;;;-4.80;97.96;100489.63;4976822;28;20046;-81
2021/11/29 04:44:29;;;;;;;4.80;1.38;;;;;;;-4.73;97.99;100490.03;4994382;28;20058;-80
2021/11/29 04:46:54;;;;;;;3.50;1.55;;;;;;;-4.75;98.11;100497.16;4995096;28;20045;-81
2021/11/29 04:49:20;;;;;;;2.50;1.23;;;;;;;-4.97;97.91;100467.19;4995994;28;20460;-80
2021/11/29 04:51:46;;;;;;;1.33;1.00;;;;;;;-4.77;98.29;100497.28;4995269;28;20042;-79
2021/11/29 04:54:12;;;;;;;2.08;1.17;;;;;;;-4.75;98.45;100494.53;4995678;28;20537;-80
2021/11/29 04:56:39;;;;;;;3.58;1.42;;;;;;;-4.82;98.60;100498.56;4978163;28;20026;-81
2021/11/29 04:59:05;;;;;;;1.52;0.95;;;;;;;-4.92;98.69;100466.88;4993871;28;20026;-80
2021/11/29 05:01:32;;;;;;;4.50;1.20;;;;;;;-4.80;98.62;100502.75;4995619;28;20026;-80
2021/11/29 05:03:58;;;;;;;5.72;1.42;;;;;;;-4.82;98.55;100496.75;4994775;28;20057;-80
2021/11/29 05:06:23;;;;;;;4.22;1.50;;;;;;;-4.91;98.66;100489.53;4978796;28;20023;-81
2021/11/29 05:08:49;;;;;;;4.70;1.27;;;;;;;-5.00;98.47;100467.41;4979804;28;20453;-81
2021/11/29 05:11:14;;;;;;;2.28;1.10;;;;;;;-4.80;98.49;100502.75;5010849;28;20034;-80
2021/11/29 05:13:40;;;;;;;3.40;1.63;;;;;;;-5.02;98.39;100473.72;5010308;28;20026;-80
2021/11/29 05:16:06;;;;;;;3.88;1.17;;;;;;;-5.21;98.18;100448.75;5012279;28;20030;-81
2021/11/29 05:18:33;;;;;;;1.52;1.23;;;;;;;-5.16;98.05;100464.19;4996789;28;20126;-80
2021/11/29 05:20:58;;;;;;;3.03;1.50;;;;;;;-4.97;98.50;100492.56;4999289;28;20333;-81
2021/11/29 05:23:24;;;;;;;2.10;1.15;;;;;;;-4.91;98.45;100513.16;5000006;28;20034;-81
2021/11/29 05:25:50;;;;;;;1.98;1.33;;;;;;;-5.73;98.51;100384.22;4994881;28;20037;-79
2021/11/29 05:28:16;;;;;;;1.35;0.93;;;;;;;-5.02;98.88;100511.28;4995555;28;20050;-80
2021/11/29 05:30:41;;;;;;;2.08;1.13;;;;;;;-5.13;98.96;100489.34;4960905;28;20034;-81
2021/11/29 05:33:07;;;;;;;2.25;1.15;;;;;;;-5.02;98.82;100518.31;4975185;28;20034;-80
2021/11/29 05:35:33;;;;;;;1.83;1.13;;;;;;;-5.03;99.02;100511.41;4984565;28;20057;-81
2021/11/29 05:37:59;;;;;;;3.50;1.38;;;;;;;-5.33;99.00;100464.50;4985503;28;20037;-82
2021/11/29 05:40:25;;;;;;;3.47;1.42;;;;;;;-5.00;98.63;100519.88;5002510;28;20407;-81
2021/11/29 05:42:51;;;;;;;1.90;1.10;;;;;;;-5.06;99.09;100503.75;5004508;28;20046;-80
2021/11/29 05:45:18;;;;;;;1.90;1.02;;;;;;;-5.35;98.89;100464.59;5005020;28;20174;-81
2021/11/29 05:47:43;;;;;;;2.15;1.33;;;;;;;-5.04;98.91;100526.28;5005682;28;20121;-81
2021/11/29 05:50:11;;;;;;;3.28;1.55;;;;;;;-5.14;99.06;100513.91;5018705;28;20030;-82
2021/11/29 05:52:38;;;;;;;1.83;1.38;;;;;;;-5.21;99.48;100522.19;5013214;28;20033;-81
2021/11/29 05:55:06;;;;;;;2.40;1.42;;;;;;;-5.23;99.01;100505.75;5013513;28;20510;-80
2021/11/29 05:57:32;;;;;;;3.30;1.13;;;;;;;-5.23;99.06;100518.00;5006519;28;20018;-80
2021/11/29 05:59:57;;;;;;;6.95;2.45;;;;;;;-5.07;99.52;100539.59;5004830;28;20045;-81
2021/11/29 06:02:23;;;;;;;3.88;1.25;;;;;;;-5.36;99.50;100502.28;5001112;28;20041;-81
2021/11/29 06:04:48;;;;;;;3.13;1.50;;;;;;;-5.20;99.57;100520.41;5010335;28;20026;-82
2021/11/29 06:07:14;;;;;;;3.47;1.33;;;;;;;-5.23;99.24;100523.25;4994595;28;20022;-81
2021/11/29 06:09:39;;;;;;;2.97;1.55;;;;;;;-5.22;99.66;100519.69;4974353;28;20083;-81
2021/11/29 06:12:05;;;;;;;3.00;1.45;;;;;;;-5.05;99.54;100536.88;5009532;28;20094;-81
2021/11/29 06:14:31;;;;;;;3.30;1.35;;;;;;;-5.07;99.61;100544.84;4983411;28;20026;-81
2021/11/29 06:16:57;;;;;;;2.28;1.40;;;;;;;-5.11;99.65;100547.78;4966453;28;20122;-80
2021/11/29 06:19:22;;;;;;;3.92;1.48;;;;;;;-5.48;99.67;100487.38;5002615;28;20034;-81
2021/11/29 06:21:48;;;;;;;4.28;1.50;;;;;;;-5.06;99.65;100556.22;5018832;28;20040;-79
2021/11/29 06:24:13;;;;;;;1.77;1.15;;;;;;;-5.19;99.63;100532.59;4998628;28;20057;-80
2021/11/29 06:26:39;;;;;;;1.75;1.30;;;;;;;-5.09;99.73;100557.25;5004204;28;20052;-81
2021/11/29 06:29:05;;;;;;;4.25;1.60;;;;;;;-5.31;99.84;100518.50;5002882;28;20049;-80
2021/11/29 06:31:32;;;;;;;1.88;1.30;;;;;;;-5.15;99.92;100554.19;5001245;28;20022;-79
2021/11/29 06:33:58;;;;;;;5.85;1.55;;;;;;;-5.12;99.81;100556.63;5003549;28;20032;-80
2021/11/29 06:36:28;;;;;;;3.10;1.60;;;;;;;-5.25;99.91;100540.88;4995049;28;20037;-80
2021/11/29 06:38:55;;;;;;;2.92;1.50;;;;;;;-5.23;99.87;100552.13;5009119;28;20049;-81
2021/11/29 06:41:23;;;;;;;2.63;1.48;;;;;;;-5.21;99.70;100547.56;5002176;28;20034;-81
2021/11/29 06:43:49;;;;;;;3.42;1.75;;;;;;;-5.52;99.90;100515.56;4981482;28;20124;-80
2021/11/29 06:46:15;;;;;;;2.83;1.60;;;;;;;-5.16;99.93;100570.91;4987280;28;20064;-81
2021/11/29 06:48:40;;;;;;;2.65;1.73;;;;;;;-5.16;99.77;100565.66;5003513;28;20023;-81
2021/11/29 06:51:08;;;;;;;4.07;1.45;;;;;;;-5.17;99.67;100584.94;4965946;28;20031;-80
2021/11/29 06:53:34;;;;;;;4.80;2.55;;;;;;;-5.21;99.98;100589.53;5000908;28;20045;-81
2021/11/29 06:56:00;;;;;;;2.92;1.70;;;;;;;-5.21;99.98;100589.53;5001963;28;20037;-79
2021/11/29 06:58:26;;;;;;;3.28;1.90;;;;;;;-5.17;99.83;100588.38;5003615;28;20409;-79
2021/11/29 07:00:52;;;;;;;5.97;3.30;;;;;;;-5.19;99.90;100587.66;5001017;28;20483;-81
2021/11/29 07:03:18;;;;;;;3.20;1.90;;;;;;;-5.26;99.79;100592.50;5003717;28;20026;-80
2021/11/29 07:05:44;;;;;;;3.35;2.10;;;;;;;-5.43;100.00;100580.50;5010591;28;20493;-80
2021/11/29 07:08:09;;;;;;;3.47;2.10;;;;;;;-5.48;100.00;100577.34;4964022;28;20638;-79
2021/11/29 07:10:40;;;;;;;4.00;1.67;;;;;;;-5.39;100.00;100594.25;4979383;28;20075;-79
2021/11/29 07:13:08;;;;;;;5.30;2.00;;;;;;;-5.52;100.00;100577.66;4978642;28;20333;-80
2021/11/29 07:15:33;;;;;;;3.65;2.03;;;;;;;-5.65;100.00;100558.44;4999735;28;20460;-80
2021/11/29 07:17:59;;;;;;;5.15;1.90;;;;;;;-5.46;100.00;100601.69;4995794;28;20065;-80
2021/11/29 07:20:24;;;;;;;2.42;1.80;;;;;;;-5.49;100.00;100587.94;4994376;28;20034;-79
2021/11/29 07:22:50;;;;;;;4.57;2.35;;;;;;;-5.41;100.00;100609.22;4994182;28;20038;-80
2021/11/29 07:25:16;;;;;;;2.92;1.52;;;;;;;-6.10;100.00;100489.81;4995104;28;20026;-79
2021/11/29 07:27:42;;;;;;;3.65;1.67;;;;;;;-5.62;100.00;100579.22;4991006;28;20089;-79
2021/11/29 07:30:10;;;;;;;3.05;1.75;;;;;;;-5.48;100.00;100597.47;4995729;28;20113;-79
2021/11/29 07:32:35;;;;;;;2.47;1.80;;;;;;;-5.43;100.00;100605.88;4994205;28;20027;-80
2021/11/29 07:35:01;;;;;;;3.20;1.88;;;;;;;-5.42;99.70;100599.69;4982620;28;20415;-80
2021/11/29 07:37:27;;;;;;;2.38;1.50;;;;;;;-5.41;99.14;100595.28;4984805;28;20041;-79
2021/11/29 07:39:53;;;;;;;1.85;1.35;;;;;;;-5.43;98.57;100590.13;4999647;28;20078;-79
2021/11/29 07:42:20;;;;;;;3.10;1.52;;;;;;;-5.35;98.99;100602.75;4996309;28;20026;-80
2021/11/29 07:44:45;;;;;;;2.42;1.38;;;;;;;-5.34;98.38;100594.78;4996477;28;20046;-80
2021/11/29 07:47:11;;;;;;;2.38;1.30;;;;;;;-5.34;98.25;100596.56;4980442;28;20463;-79
2021/11/29 07:49:36;;;;;;;2.85;1.30;;;;;;;-5.34;97.58;100593.94;4979302;28;20030;-80
2021/11/29 07:52:02;;;;;;;3.17;1.60;;;;;;;-5.35;97.58;100595.72;4963827;28;20456;-79
2021/11/29 07:54:28;;;;;;;2.63;1.60;;;;;;;-5.41;97.57;100593.50;4996316;28;20037;-79
2021/11/29 07:56:53;;;;;;;2.58;1.42;;;;;;;-5.40;97.71;100586.47;4994825;28;20026;-80
2021/11/29 07:59:19;;;;;;;2.83;1.50;;;;;;;-5.56;97.29;100571.78;4980693;28;20030;-81
2021/11/29 08:01:44;;;;;;;3.10;1.70;;;;;;;-5.38;97.56;100603.78;4994805;28;20468;-80
2021/11/29 08:04:10;;;;;;;2.83;1.67;;;;;;;-5.43;97.21;100604.09;4995488;28;20072;-80
2021/11/29 08:06:37;;;;;;;2.80;1.45;;;;;;;-5.68;97.20;100576.03;4997618;28;20034;-79
2021/11/29 08:09:04;;;;;;;2.85;1.40;;;;;;;-5.84;97.20;100554.41;4983686;28;20041;-79
2021/11/29 08:11:29;;;;;;;3.33;1.60;;;;;;;-5.32;96.91;100624.38;5002405;28;20029;-81
2021/11/29 08:13:55;;;;;;;2.85;1.30;;;;;;;-5.50;97.42;100609.84;5002753;28;20037;-80
2021/11/29 08:16:20;;;;;;;3.45;1.90;;;;;;;-5.70;97.05;100575.28;4994303;28;20385;-80
2021/11/29 08:18:46;;;;;;;2.53;1.52;;;;;;;-5.58;97.19;100588.53;4976354;28;20117;-80
2021/11/29 08:21:11;;;;;;;2.15;1.40;;;;;;;-5.40;97.29;100621.41;4994489;28;20113;-79
2021/11/29 08:23:36;;;;;;;3.20;1.70;;;;;;;-5.43;97.09;100625.09;4994374;28;20053;-79
2021/11/29 08:26:02;;;;;;;3.20;1.88;;;;;;;-5.57;97.07;100593.66;4978699;28;20038;-80
2021/11/29 08:28:30;;;;;;;2.33;1.77;;;;;;;-5.51;97.27;100600.31;4994755;28;20120;-80
2021/11/29 08:30:56;;;;;;;2.38;1.40;;;;;;;-5.46;97.06;100625.28;4994261;28;20026;-80
2021/11/29 08:33:21;;;;;;;3.63;1.48;;;;;;;-5.38;97.42;100635.25;4996119;28;20041;-80
2021/11/29 08:35:47;;;;;;;5.00;1.50;;;;;;;-5.51;97.09;100618.66;4994692;28;20026;-80
2021/11/29 08:38:17;;;;;;;5.68;1.73;;;;;;;-5.25;96.32;100616.94;4994865;28;20041;-81
2021/11/29 08:40:45;;;;;;;5.45;2.13;;;;;;;-5.38;97.14;100618.69;4995428;28;20034;-80
2021/11/29 08:43:16;;;;;;;3.15;1.75;;;;;;;-5.70;97.11;100575.28;4977812;28;20514;-80
2021/11/29 08:45:42;;;;;;;3.65;1.90;;;;;;;-5.63;96.89;100575.72;4993995;28;20030;-80
2021/11/29 08:48:09;;;;;;;3.10;1.60;;;;;;;-5.33;96.87;100629.69;4995635;28;20021;-80
2021/11/29 08:50:36;;;;;;;3.65;1.90;;;;;;;-5.33;96.79;100624.44;4993082;28;20124;-80
2021/11/29 08:53:07;;;;;;;2.53;1.80;;;;;;;-5.26;96.69;100629.22;4979474;28;20034;-80
2021/11/29 08:55:32;;;;;;;3.45;1.80;;;;;;;-5.31;96.81;100631.28;4995968;28;20037;-80
2021/11/29 08:57:59;;;;;;;3.22;1.70;;;;;;;-5.28;96.56;100631.09;4979724;28;20030;-80
2021/11/29 09:00:26;;;;;;;2.65;1.48;;;;;;;-5.67;96.70;100575.09;4992416;28;20073;-80
2021/11/29 09:02:52;;;;;;;3.47;1.70;;;;;;;-5.29;96.70;100631.19;4993415;28;20038;-80
2021/11/29 09:05:18;;;;;;;4.88;1.98;;;;;;;-5.26;96.50;100631.84;4995618;28;20046;-80
2021/11/29 09:07:45;;;;;;;3.42;2.10;;;;;;;-5.29;96.01;100621.53;4994542;28;20027;-80
2021/11/29 09:10:12;;;;;;;2.80;1.70;;;;;;;-5.18;96.03;100630.47;4978326;28;20109;-80
2021/11/29 09:12:38;;;;;;;5.00;1.90;;;;;;;-5.13;96.12;100633.63;4996474;28;20025;-80
2021/11/29 09:15:08;;;;;;;2.92;1.42;;;;;;;-5.09;96.05;100632.50;4982946;28;20045;-80
2021/11/29 09:17:34;;;;;;;4.10;1.55;;;;;;;-5.15;95.81;100618.00;4999747;28;20045;-80
2021/11/29 09:19:59;;;;;;;2.72;1.63;;;;;;;-5.30;96.01;100609.34;4983183;28;20038;-80
2021/11/29 09:22:25;;;;;;;2.75;1.70;;;;;;;-5.05;95.81;100629.53;4994856;28;20038;-79
2021/11/29 09:24:51;;;;;;;2.67;1.65;;;;;;;-5.20;95.87;100597.31;4978051;28;20452;-80
2021/11/29 09:27:16;;;;;;;3.13;1.77;;;;;;;-4.93;95.56;100635.75;4993892;28;20105;-80
2021/11/29 09:29:45;;;;;;;4.32;1.65;;;;;;;-4.93;95.80;100641.00;4977777;28;20042;-80
2021/11/29 09:32:12;;;;;;;2.90;1.70;;;;;;;-4.98;95.91;100635.22;4994233;28;20100;-80
2021/11/29 09:34:37;;;;;;;2.53;1.63;;;;;;;-4.89;95.80;100647.72;4993698;28;20022;-80
2021/11/29 09:37:03;;;;;;;5.13;2.08;;;;;;;-5.00;95.74;100632.72;5005687;28;20062;-79
2021/11/29 09:39:28;;;;;;;4.13;1.80;;;;;;;-4.89;95.65;100649.50;4976696;28;20042;-80
2021/11/29 09:41:55;;;;;;;3.88;2.03;;;;;;;-5.07;95.50;100599.09;4975462;28;20415;-80
2021/11/29 09:44:20;;;;;;;5.22;1.77;;;;;;;-4.75;95.38;100645.00;4995175;28;20094;-80
2021/11/29 09:46:46;;;;;;;5.80;2.10;;;;;;;-4.77;95.69;100639.03;4991769;28;20472;-80
2021/11/29 09:49:11;;;;;;;3.28;1.80;;;;;;;-4.88;95.11;100611.81;5006767;28;20102;-80
2021/11/29 09:51:37;;;;;;;4.80;2.00;;;;;;;-4.70;95.18;100622.81;4983066;28;20061;-80
2021/11/29 09:54:05;;;;;;;3.17;1.65;;;;;;;-4.66;95.14;100632.19;4994447;28;20042;-80
2021/11/29 09:56:31;;;;;;;3.03;1.95;;;;;;;-4.55;95.13;100650.66;4993186;28;20070;-80
2021/11/29 09:58:58;;;;;;;3.35;1.90;;;;;;;-4.57;95.18;100642.03;4991678;28;20041;-80
2021/11/29 10:01:24;;;;;;;4.32;1.83;;;;;;;-4.68;95.03;100636.69;4994949;28;20030;-80
2021/11/29 10:03:49;;;;;;;3.17;1.90;;;;;;;-4.62;94.81;100631.03;4961678;28;20033;-80
2021/11/29 10:06:14;;;;;;;2.22;1.65;;;;;;;-4.71;95.13;100637.75;4961775;28;20123;-80
2021/11/29 10:08:40;;;;;;;3.45;1.90;;;;;;;-4.74;94.90;100625.66;4993965;28;20184;-80
2021/11/29 10:11:14;;;;;;;2.80;1.85;;;;;;;-4.57;94.67;100644.66;4976615;28;20050;-80
2021/11/29 10:13:53;;;;;;;3.30;1.50;;;;;;;-4.51;94.40;100625.88;4991451;28;20048;-80
2021/11/29 10:16:31;;;;;;;2.92;1.98;;;;;;;-4.63;94.54;100647.75;4993669;28;20088;-80
2021/11/29 10:18:58;;;;;;;3.70;1.90;;;;;;;-4.69;94.43;100628.00;4996895;28;20031;-80
2021/11/29 10:21:24;;;;;;;3.67;1.60;;;;;;;-4.52;94.77;100642.56;4999559;28;20027;-80
2021/11/29 10:23:52;;;;;;;4.30;1.77;;;;;;;-4.47;94.25;100629.94;4982948;28;20157;-81
2021/11/29 10:26:17;;;;;;;2.75;1.42;;;;;;;-4.60;94.47;100619.50;4999770;28;20038;-79
2021/11/29 10:28:46;;;;;;;3.53;2.03;;;;;;;-4.49;94.26;100627.44;4994877;28;20023;-80
2021/11/29 10:31:16;;;;;;;3.58;1.70;;;;;;;-4.70;93.91;100597.44;4996711;28;20026;-80
2021/11/29 10:33:55;;;;;;;3.05;1.80;;;;;;;-4.62;94.14;100617.91;4996903;28;20125;-80
2021/11/29 10:36:22;;;;;;;3.35;1.55;;;;;;;-4.65;93.93;100632.06;4996791;28;20045;-80
2021/11/29 10:39:00;;;;;;;3.80;1.95;;;;;;;-4.53;93.90;100641.75;4980553;28;20368;-80
2021/11/29 10:41:35;;;;;;;4.05;2.03;;;;;;;-4.55;93.83;100633.13;4995712;28;20038;-80
2021/11/29 10:44:03;;;;;;;4.13;2.30;;;;;;;-4.44;93.62;100637.63;4994315;28;20101;-80
2021/11/29 10:46:30;;;;;;;3.00;2.00;;;;;;;-4.38;93.28;100631.09;4996529;28;20101;-80
2021/11/29 10:48:58;;;;;;;2.15;1.60;;;;;;;-4.60;92.66;100621.25;4990397;28;20065;-80
2021/11/29 10:51:25;;;;;;;3.80;1.80;;;;;;;-4.49;93.20;100621.34;4991808;28;20402;-79
2021/11/29 10:54:19;;;;;;;3.33;1.92;;;;;;;-4.64;93.11;100598.78;4995911;28;20467;-80
2021/11/29 10:56:45;;;;;;;2.33;1.90;;;;;;;-4.47;93.12;100610.72;4994729;28;20045;-80
2021/11/29 10:59:16;;;;;;;3.40;1.70;;;;;;;-4.68;92.99;100573.69;4980391;28;20039;-80
2021/11/29 11:01:54;;;;;;;3.15;1.98;;;;;;;-4.32;92.93;100612.28;4997106;28;20018;-80
2021/11/29 11:04:21;;;;;;;3.20;1.60;;;;;;;-4.48;93.11;100591.50;4996967;28;20089;-80
2021/11/29 11:06:51;;;;;;;2.55;1.67;;;;;;;-4.40;93.02;100588.34;4997246;28;20022;-80
2021/11/29 11:09:18;;;;;;;3.75;1.77;;;;;;;-4.22;92.61;100604.59;4997949;28;20048;-80
2021/11/29 11:11:49;;;;;;;2.50;1.50;;;;;;;-4.50;92.50;100572.41;4994636;28;20026;-80
2021/11/29 11:14:18;;;;;;;1.55;1.25;;;;;;;-4.40;92.52;100580.47;4997218;28;20037;-79
2021/11/29 11:16:56;;;;;;;2.67;1.50;;;;;;;-4.21;92.19;100603.66;4996569;28;20026;-80
2021/11/29 11:19:23;;;;;;;2.92;1.60;;;;;;;-4.21;92.49;100608.91;4997899;28;20376;-80